Time;durP1;ratioP1;P1;durP2;ratioP2;P2;SDS_P1;SDS_P2;PMS_P1;PMS_P2;Temp;Humidity;BMP_temperature;BMP_pressure;BME280_temperature;BME280_humidity;BME280_pressure;Samples;Min_cycle;Max_cycle;Signal;HPM_P1;HPM_P2
2023/08/28 00:03:30;;;;;;;;;;;20.60;71.10;;;20.02;61.41;99298.09;10371505;28;1906;-71
2023/08/28 00:08:26;;;;;;;;;;;20.60;71.20;;;20.04;61.37;99290.94;10370419;28;879;-71
2023/08/28 00:13:21;;;;;;;;;;;20.60;71.20;;;20.07;61.29;99305.78;10370158;28;921;-71
2023/08/28 00:18:17;;;;;;;;;;;20.60;71.20;;;20.08;61.28;99296.88;10370585;28;780;-71
2023/08/28 00:23:12;;;;;;;;;;;20.60;71.00;;;20.08;61.30;99297.72;10368884;28;1910;-72
2023/08/28 00:28:07;;;;;;;;;;;20.60;70.90;;;20.09;61.43;99295.94;10369497;28;1295;-71
2023/08/28 00:33:03;;;;;;;;;;;20.60;70.90;;;20.08;61.11;99283.66;10370220;28;945;-71
2023/08/28 00:37:58;;;;;;;;;;;20.60;70.70;;;20.08;61.25;99270.41;10369245;28;804;-71
2023/08/28 00:42:54;;;;;;;;;;;20.60;70.70;;;20.06;61.25;99278.44;10369004;28;1971;-71
2023/08/28 00:47:49;;;;;;;;;;;20.60;70.80;;;20.07;61.22;99279.31;10369367;28;878;-71
2023/08/28 00:52:45;;;;;;;;;;;20.70;70.90;;;20.08;61.32;99297.72;10369638;28;830;-71
2023/08/28 00:57:40;;;;;;;;;;;20.60;70.80;;;20.08;61.19;99294.25;10368315;28;893;-71
2023/08/28 01:02:36;;;;;;;;;;;20.60;70.80;;;20.08;61.31;99291.59;10368206;28;1905;-71
2023/08/28 01:07:31;;;;;;;;;;;20.60;70.80;;;20.08;61.37;99291.59;10368667;28;894;-71
2023/08/28 01:12:26;;;;;;;;;;;20.60;71.70;;;20.08;60.98;99303.03;10367247;28;1470;-71
2023/08/28 01:17:23;;;;;;;;;;;20.60;70.80;;;20.08;61.22;99295.09;10368197;28;904;-71
2023/08/28 01:22:19;;;;;;;;;;;20.60;70.80;;;20.08;61.19;99286.31;10368293;28;1910;-71
2023/08/28 01:27:14;;;;;;;;;;;20.60;70.80;;;20.09;61.16;99290.63;10367413;28;963;-71
2023/08/28 01:32:10;;;;;;;;;;;20.60;70.70;;;20.11;61.21;99280.81;10367417;28;1154;-71
2023/08/28 01:37:05;;;;;;;;;;;20.60;70.70;;;20.10;61.16;99274.69;10367661;28;827;-71
2023/08/28 01:42:00;;;;;;;;;;;20.60;70.80;;;20.10;61.10;99277.31;10366925;28;1905;-71
2023/08/28 01:46:56;;;;;;;;;;;20.60;70.70;;;20.10;61.27;99279.13;10366531;28;906;-71
2023/08/28 01:51:51;;;;;;;;;;;20.70;70.90;;;20.10;61.10;99277.31;10367241;28;961;-71
2023/08/28 01:56:46;;;;;;;;;;;20.60;70.70;;;20.07;61.03;99274.88;10367666;28;862;-71
2023/08/28 02:01:42;;;;;;;;;;;20.60;70.70;;;20.08;61.33;99275.72;10365673;28;1902;-71
2023/08/28 02:06:37;;;;;;;;;;;20.60;70.70;;;20.08;61.25;99255.41;10366357;28;867;-71
2023/08/28 02:11:33;;;;;;;;;;;20.60;70.70;;;20.07;61.29;99253.69;10365955;28;824;-71
2023/08/28 02:16:28;;;;;;;;;;;20.60;70.60;;;20.09;61.24;99270.31;10366719;28;893;-71
2023/08/28 02:21:23;;;;;;;;;;;20.60;70.70;;;20.09;61.21;99272.13;10365974;28;1965;-71
2023/08/28 02:26:19;;;;;;;;;;;20.60;70.70;;;20.08;61.25;99275.72;10366107;28;819;-71
2023/08/28 02:31:14;;;;;;;;;;;20.60;70.80;;;20.08;61.14;99281.00;10367189;28;1315;-71
2023/08/28 02:36:09;;;;;;;;;;;20.60;70.80;;;20.07;61.22;99271.38;10365702;28;1033;-71
2023/08/28 02:41:05;;;;;;;;;;;20.60;70.70;;;20.07;61.26;99271.38;10365592;28;1967;-71
2023/08/28 02:46:00;;;;;;;;;;;20.60;70.70;;;20.07;61.25;99281.97;10370059;28;945;-71
2023/08/28 02:50:56;;;;;;;;;;;20.60;70.80;;;20.05;61.26;99295.28;10373271;28;823;-71
2023/08/28 02:55:51;;;;;;;;;;;20.60;70.70;;;20.05;61.28;99299.72;10372738;28;938;-71
2023/08/28 03:00:46;;;;;;;;;;;20.60;70.60;;;20.07;61.19;99317.19;10373009;28;985;-71
2023/08/28 03:05:42;;;;;;;;;;;20.60;70.60;;;20.07;61.09;99317.19;10372836;28;1959;-71
2023/08/28 03:10:37;;;;;;;;;;;20.60;71.50;;;20.07;61.22;99322.50;10372720;28;794;-71
2023/08/28 03:15:33;;;;;;;;;;;20.60;70.70;;;20.06;61.11;99315.47;10372302;28;800;-71
2023/08/28 03:20:28;;;;;;;;;;;20.60;70.60;;;20.06;61.24;99312.84;10371752;28;898;-71
2023/08/28 03:25:24;;;;;;;;;;;20.60;70.60;;;20.05;61.20;99311.16;10372058;28;1975;-71
2023/08/28 03:30:19;;;;;;;;;;;20.60;70.60;;;20.03;61.19;99315.66;10371273;28;1460;-71
2023/08/28 03:35:15;;;;;;;;;;;20.60;70.50;;;20.04;61.04;99303.28;10371425;28;832;-71
2023/08/28 03:40:10;;;;;;;;;;;20.60;70.50;;;20.04;61.09;99303.28;10371492;28;906;-71
2023/08/28 03:45:06;;;;;;;;;;;20.60;70.50;;;20.03;61.09;99294.50;10371324;28;1973;-71
2023/08/28 03:50:01;;;;;;;;;;;20.60;70.50;;;20.03;61.13;99288.38;10371201;28;969;-71
2023/08/28 03:54:56;;;;;;;;;;;20.60;70.50;;;20.03;61.05;99298.94;10370521;28;878;-71
2023/08/28 03:59:52;;;;;;;;;;;20.60;70.50;;;20.03;61.02;99296.31;10370834;28;917;-71
2023/08/28 04:04:47;;;;;;;;;;;20.50;70.40;;;20.03;61.04;99288.38;10371187;28;1968;-71
2023/08/28 04:09:45;;;;;;;;;;;20.60;70.50;;;20.04;60.94;99287.41;10370604;28;766;-69
2023/08/28 04:14:41;;;;;;;;;;;20.60;70.50;;;20.08;60.85;99281.84;10370918;28;795;-68
2023/08/28 04:19:36;;;;;;;;;;;20.60;70.40;;;20.07;60.99;99274.88;10369996;28;890;-68
2023/08/28 04:24:32;;;;;;;;;;;20.60;70.40;;;20.08;61.03;99281.00;10369738;28;1977;-71
2023/08/28 04:29:27;;;;;;;;;;;20.60;70.60;;;20.11;61.00;99286.09;10369838;28;1139;-68
2023/08/28 04:34:22;;;;;;;;;;;20.60;70.60;;;20.10;61.06;99287.06;10369295;28;905;-68
2023/08/28 04:39:20;;;;;;;;;;;20.60;70.80;;;20.07;61.32;99280.16;10369807;28;819;-68
2023/08/28 04:44:15;;;;;;;;;;;20.60;70.80;;;20.10;61.36;99279.13;10368887;28;1945;-68
2023/08/28 04:49:10;;;;;;;;;;;20.60;70.90;;;20.13;61.08;99286.88;10369225;28;819;-68
2023/08/28 04:54:06;;;;;;;;;;;20.60;70.70;;;20.12;61.27;99285.16;10368098;28;921;-68
2023/08/28 04:59:01;;;;;;;;;;;20.60;71.00;;;20.07;61.28;99292.53;10367852;28;890;-68
2023/08/28 05:03:57;;;;;;;;;;;20.60;71.00;;;20.07;61.42;99284.59;10368686;28;1909;-68
2023/08/28 05:08:52;;;;;;;;;;;20.60;71.00;;;20.05;61.34;99282.03;10367531;28;921;-68
2023/08/28 05:13:48;;;;;;;;;;;20.60;71.00;;;20.07;61.40;99287.25;10368550;28;861;-68
2023/08/28 05:18:43;;;;;;;;;;;20.60;71.00;;;20.06;61.50;99298.75;10367063;28;945;-69
2023/08/28 05:23:38;;;;;;;;;;;20.60;71.10;;;20.06;61.42;99301.41;10367367;28;1910;-68
2023/08/28 05:28:38;;;;;;;;;;;20.60;71.00;;;20.06;61.30;99310.19;10342485;28;1109;-69
2023/08/28 05:33:34;;;;;;;;;;;20.60;71.10;;;20.07;61.50;99321.66;10366297;28;874;-68
2023/08/28 05:38:29;;;;;;;;;;;20.60;71.10;;;20.06;61.32;99314.63;10366976;28;858;-69
2023/08/28 05:43:24;;;;;;;;;;;20.60;71.20;;;20.06;61.30;99330.50;10367118;28;1914;-68
2023/08/28 05:48:20;;;;;;;;;;;20.60;71.10;;;20.05;61.28;99337.59;10366198;28;1003;-69
2023/08/28 05:53:15;;;;;;;;;;;20.60;71.10;;;20.05;61.45;99340.25;10366828;28;780;-68
2023/08/28 05:58:11;;;;;;;;;;;20.60;71.10;;;20.04;61.48;99330.63;10365974;28;835;-69
2023/08/28 06:03:06;;;;;;;;;;;20.60;71.20;;;20.01;61.39;99337.88;10365830;28;1902;-68
2023/08/28 06:08:02;;;;;;;;;;;20.50;71.10;;;19.99;61.54;99335.31;10367072;28;1646;-68
2023/08/28 06:12:57;;;;;;;;;;;20.50;71.20;;;19.99;61.65;99331.81;10366804;28;959;-69
2023/08/28 06:17:53;;;;;;;;;;;20.50;71.10;;;20.01;61.37;99324.63;10366205;28;827;-68
2023/08/28 06:22:49;;;;;;;;;;;20.50;71.00;;;20.03;61.26;99325.41;10374117;28;1906;-68
2023/08/28 06:27:44;;;;;;;;;;;20.60;71.20;;;20.14;61.09;99320.31;10373185;28;1028;-67
2023/08/28 06:32:40;;;;;;;;;;;20.60;71.10;;;20.09;61.06;99315.28;10333282;28;867;-69
2023/08/28 06:37:35;;;;;;;;;;;20.60;71.00;;;20.06;61.20;99314.63;10333452;28;870;-70
2023/08/28 06:42:30;;;;;;;;;;;20.60;71.00;;;20.08;61.29;99304.81;10332613;28;1910;-69
2023/08/28 06:47:26;;;;;;;;;;;20.60;71.60;;;20.03;61.63;99302.44;10331868;28;896;-68
2023/08/28 06:52:21;;;;;;;;;;;20.60;71.60;;;20.03;61.73;99302.44;10332153;28;884;-67
2023/08/28 06:57:16;;;;;;;;;;;20.50;71.70;;;20.03;61.90;99298.94;10331992;28;774;-68
2023/08/28 07:02:12;;;;;;;;;;;20.50;71.90;;;20.06;61.88;99301.41;10331731;28;1957;-68
2023/08/28 07:07:07;;;;;;;;;;;20.50;71.80;;;20.08;61.66;99304.81;10331629;28;949;-68
2023/08/28 07:12:03;;;;;;;;;;;20.60;71.80;;;20.10;61.68;99308.22;10330799;28;921;-68
2023/08/28 07:16:58;;;;;;;;;;;20.60;71.70;;;20.09;61.59;99310.00;10331895;28;893;-68
2023/08/28 07:21:55;;;;;;;;;;;20.60;71.60;;;20.11;61.34;99313.41;10331454;28;1905;-68
2023/08/28 07:26:51;;;;;;;;;;;20.60;71.30;;;20.14;61.47;99320.31;10331189;28;842;-69
2023/08/28 07:31:46;;;;;;;;;;;20.60;71.70;;;20.10;61.55;99332.03;10364571;28;1331;-69
2023/08/28 07:36:44;;;;;;;;;;;20.60;71.40;;;20.07;61.49;99327.78;10372921;28;885;-69
2023/08/28 07:41:39;;;;;;;;;;;20.60;71.40;;;20.06;61.55;99315.47;10372352;28;1909;-68
2023/08/28 07:46:35;;;;;;;;;;;20.60;71.40;;;20.10;61.40;99310.88;10371504;28;814;-70
2023/08/28 07:51:31;;;;;;;;;;;20.60;71.40;;;20.12;61.47;99301.03;10370607;28;1117;-68
2023/08/28 07:56:26;;;;;;;;;;;20.60;71.60;;;20.14;61.40;99307.94;10368833;28;1109;-69
2023/08/28 08:01:22;;;;;;;;;;;20.60;71.70;;;20.15;61.38;99319.41;10370294;28;1981;-68
2023/08/28 08:06:17;;;;;;;;;;;20.60;71.70;;;20.14;61.48;99331.75;10370811;28;933;-68
2023/08/28 08:11:13;;;;;;;;;;;20.60;71.70;;;20.14;61.47;99336.19;10369899;28;862;-69
2023/08/28 08:16:08;;;;;;;;;;;20.60;71.60;;;20.14;61.50;99333.53;10370947;28;1000;-69
2023/08/28 08:21:03;;;;;;;;;;;20.60;71.70;;;20.13;61.49;99339.78;10370596;28;1963;-69
2023/08/28 08:25:59;;;;;;;;;;;20.60;71.70;;;20.11;61.59;99339.88;10369825;28;765;-70
2023/08/28 08:30:54;;;;;;;;;;;20.60;71.70;;;20.09;61.62;99344.41;10369690;28;1233;-68
2023/08/28 08:35:50;;;;;;;;;;;20.50;71.60;;;20.12;61.57;99346.00;10369437;28;898;-69
2023/08/28 08:40:46;;;;;;;;;;;20.60;71.70;;;20.13;61.45;99334.50;10368854;28;956;-67
2023/08/28 08:45:41;;;;;;;;;;;20.60;71.70;;;20.13;61.30;99338.00;10369068;28;1913;-69
2023/08/28 08:50:39;;;;;;;;;;;20.60;71.60;;;20.15;61.45;99337.91;10369503;28;874;-71
2023/08/28 08:55:35;;;;;;;;;;;20.60;71.60;;;20.14;61.38;99338.84;10368596;28;819;-72
2023/08/28 09:00:31;;;;;;;;;;;20.60;71.60;;;20.15;61.37;99345.84;10368480;28;937;-67
2023/08/28 09:05:26;;;;;;;;;;;20.60;71.70;;;20.09;61.57;99344.41;10368186;28;1914;-67
2023/08/28 09:10:21;;;;;;;;;;;20.60;71.80;;;20.05;61.45;99334.09;10368332;28;921;-67
2023/08/28 09:15:18;;;;;;;;;;;20.50;71.70;;;20.03;61.53;99336.00;10368105;28;941;-69
2023/08/28 09:20:13;;;;;;;;;;;20.50;71.50;;;20.04;61.15;99345.63;10367700;28;882;-70
2023/08/28 09:25:08;;;;;;;;;;;20.50;71.30;;;20.08;61.30;99333.94;10366919;28;1899;-71
2023/08/28 09:30:04;;;;;;;;;;;20.50;71.20;;;20.11;61.05;99328.44;10367288;28;1135;-71
2023/08/28 09:34:59;;;;;;;;;;;20.50;72.00;;;20.10;61.17;99322.31;10367840;28;966;-71
2023/08/28 09:39:55;;;;;;;;;;;20.50;71.10;;;20.11;61.10;99320.50;10367097;28;865;-70
2023/08/28 09:44:51;;;;;;;;;;;20.50;71.10;;;20.11;61.22;99301.97;10367153;28;1909;-70
2023/08/28 09:49:46;;;;;;;;;;;20.50;71.10;;;20.11;61.20;99292.25;10367249;28;775;-71
2023/08/28 09:54:41;;;;;;;;;;;20.60;71.20;;;20.12;61.12;99298.38;10366489;28;838;-69
2023/08/28 09:59:37;;;;;;;;;;;20.50;71.10;;;20.13;61.14;99308.03;10367176;28;838;-70
2023/08/28 10:04:34;;;;;;;;;;;20.60;71.10;;;20.13;61.04;99305.41;10366378;28;1965;-69
2023/08/28 10:09:29;;;;;;;;;;;20.60;71.20;;;20.16;61.07;99294.63;10366831;28;938;-70
2023/08/28 10:14:28;;;;;;;;;;;20.60;71.20;;;20.12;61.19;99301.91;10366764;28;927;-72
2023/08/28 10:19:24;;;;;;;;;;;20.60;71.20;;;20.13;61.08;99310.69;10366051;28;886;-70
2023/08/28 10:24:19;;;;;;;;;;;20.60;71.30;;;20.14;60.95;99297.34;10365821;28;1905;-71
2023/08/28 10:29:15;;;;;;;;;;;20.60;71.20;;;20.16;61.05;99299.06;10365660;28;1264;-71
2023/08/28 10:34:10;;;;;;;;;;;20.60;71.10;;;20.17;60.98;99298.97;10365727;28;894;-72
2023/08/28 10:39:08;;;;;;;;;;;20.60;71.10;;;20.22;60.92;99299.53;10366451;28;818;-71
2023/08/28 10:44:03;;;;;;;;;;;20.60;71.20;;;20.21;61.04;99305.78;10365540;28;1961;-71
2023/08/28 10:48:59;;;;;;;;;;;20.60;71.30;;;20.16;61.08;99302.56;10366236;28;828;-69
2023/08/28 10:53:54;;;;;;;;;;;20.60;71.40;;;20.20;61.10;99313.81;10364833;28;917;-72
2023/08/28 10:58:50;;;;;;;;;;;20.60;71.40;;;20.19;61.07;99296.22;10365373;28;894;-72
2023/08/28 11:03:45;;;;;;;;;;;20.60;71.30;;;20.20;61.19;99311.16;10365264;28;1910;-73
2023/08/28 11:08:41;;;;;;;;;;;20.60;71.30;;;20.20;61.09;99312.03;10372360;28;881;-70
2023/08/28 11:13:36;;;;;;;;;;;20.60;71.30;;;20.21;61.00;99297.84;10372769;28;885;-69
2023/08/28 11:18:32;;;;;;;;;;;20.60;71.20;;;20.24;61.02;99305.59;10373766;28;968;-70
2023/08/28 11:23:33;;;;;;;;;;;20.60;71.30;;;20.25;61.04;99320.53;10372505;28;1922;-72
2023/08/28 11:28:29;;;;;;;;;;;20.60;71.20;;;20.28;60.91;99314.22;10371637;28;1364;-72
2023/08/28 11:33:24;;;;;;;;;;;20.70;71.30;;;20.24;61.10;99305.59;10372910;28;825;-71
2023/08/28 11:38:20;;;;;;;;;;;20.70;71.30;;;20.24;61.04;99302.94;10372500;28;838;-71
2023/08/28 11:43:16;;;;;;;;;;;20.60;71.30;;;20.26;61.03;99313.44;10371542;28;1988;-71
2023/08/28 11:48:11;;;;;;;;;;;20.60;71.20;;;20.29;60.86;99326.50;10371433;28;866;-72
2023/08/28 11:53:07;;;;;;;;;;;20.70;71.10;;;20.25;60.96;99332.91;10371196;28;973;-72
2023/08/28 11:58:02;;;;;;;;;;;20.70;71.20;;;20.30;60.67;99334.34;10371107;28;846;-71
2023/08/28 12:02:57;;;;;;;;;;;20.60;71.10;;;20.27;60.81;99331.88;10370816;28;1913;-72
2023/08/28 12:07:53;;;;;;;;;;;20.60;71.10;;;20.30;60.78;99317.59;10370564;28;961;-72
2023/08/28 12:12:48;;;;;;;;;;;20.60;71.10;;;20.31;60.73;99329.91;10369919;28;979;-72
2023/08/28 12:17:46;;;;;;;;;;;20.60;70.90;;;20.25;60.77;99324.97;10370258;28;893;-72
2023/08/28 12:22:42;;;;;;;;;;;20.60;71.00;;;20.25;60.97;99314.38;10369914;28;1914;-71
2023/08/28 12:27:38;;;;;;;;;;;20.60;71.10;;;20.25;60.90;99315.25;10369674;28;1038;-72
2023/08/28 12:32:33;;;;;;;;;;;20.60;71.10;;;20.31;60.75;99320.16;10369607;28;912;-71
2023/08/28 12:37:29;;;;;;;;;;;20.70;71.10;;;20.36;60.52;99309.31;10370354;28;787;-71
2023/08/28 12:42:24;;;;;;;;;;;20.70;71.00;;;20.36;60.56;99309.31;10370094;28;1976;-72
2023/08/28 12:47:22;;;;;;;;;;;20.70;70.90;;;20.34;60.65;99304.09;10369068;28;826;-72
2023/08/28 12:52:18;;;;;;;;;;;20.70;70.90;;;20.34;60.65;99301.44;10369756;28;869;-71
2023/08/28 12:57:14;;;;;;;;;;;20.70;71.00;;;20.34;60.62;99296.16;10368737;28;958;-72
2023/08/28 13:02:09;;;;;;;;;;;20.70;70.90;;;20.34;60.70;99298.78;10368717;28;1972;-72
2023/08/28 13:07:05;;;;;;;;;;;20.70;71.00;;;20.37;60.58;99297.75;10368338;28;819;-71
2023/08/28 13:12:00;;;;;;;;;;;20.80;70.90;;;20.34;60.79;99288.22;10368933;28;819;-72
2023/08/28 13:16:55;;;;;;;;;;;20.70;70.80;;;20.31;60.71;99280.47;10367975;28;933;-71
2023/08/28 13:21:52;;;;;;;;;;;20.70;70.80;;;20.28;60.86;99287.75;10367686;28;1913;-71
2023/08/28 13:26:48;;;;;;;;;;;20.70;70.90;;;20.25;60.94;99282.63;10368105;28;1010;-71
2023/08/28 13:31:43;;;;;;;;;;;20.70;70.90;;;20.23;61.06;99282.72;10366738;28;1321;-72
2023/08/28 13:36:41;;;;;;;;;;;20.70;70.90;;;20.22;61.00;99282.81;10367946;28;913;-72
2023/08/28 13:41:37;;;;;;;;;;;20.70;71.00;;;20.21;61.13;99284.59;10367067;28;1918;-72
2023/08/28 13:46:32;;;;;;;;;;;20.70;70.80;;;20.21;60.99;99297.84;10367163;28;927;-72
2023/08/28 13:51:28;;;;;;;;;;;20.70;70.80;;;20.20;60.94;99290.84;10366420;28;1316;-72
2023/08/28 13:56:23;;;;;;;;;;;20.60;70.70;;;20.24;60.76;99292.34;10367322;28;904;-72
2023/08/28 14:01:19;;;;;;;;;;;20.70;70.80;;;20.34;60.43;99266.19;10366477;28;1905;-71
2023/08/28 14:06:14;;;;;;;;;;;20.70;70.60;;;20.43;60.28;99265.59;10367145;28;862;-71
2023/08/28 14:11:09;;;;;;;;;;;20.70;70.50;;;20.42;60.22;99277.16;10365719;28;894;-71
2023/08/28 14:16:05;;;;;;;;;;;20.80;70.70;;;20.39;60.31;99276.50;10366921;28;839;-72
2023/08/28 14:21:00;;;;;;;;;;;20.80;70.50;;;20.40;60.41;99283.47;10366785;28;934;-71
2023/08/28 14:25:55;;;;;;;;;;;20.80;70.60;;;20.36;60.61;99277.53;10365414;28;1965;-72
2023/08/28 14:30:51;;;;;;;;;;;20.80;70.70;;;20.35;60.54;99276.66;10365462;28;1259;-72
2023/08/28 14:35:47;;;;;;;;;;;20.80;70.60;;;20.32;60.56;99284.81;10366458;28;871;-71
2023/08/28 14:40:42;;;;;;;;;;;20.70;70.50;;;20.32;60.79;99286.59;10368170;28;795;-72
2023/08/28 14:45:38;;;;;;;;;;;20.70;70.60;;;20.33;60.75;99286.53;10373589;28;1913;-70
2023/08/28 14:50:33;;;;;;;;;;;20.80;70.70;;;20.35;60.56;99284.59;10374350;28;882;-71
2023/08/28 14:55:28;;;;;;;;;;;20.70;70.60;;;20.35;60.71;99291.69;10372944;28;929;-70
2023/08/28 15:00:24;;;;;;;;;;;20.70;70.70;;;20.33;60.67;99297.09;10373906;28;815;-71
2023/08/28 15:05:20;;;;;;;;;;;20.70;70.80;;;20.29;60.75;99295.59;10372986;28;1910;-69
2023/08/28 15:10:15;;;;;;;;;;;20.70;70.80;;;20.30;60.96;99299.94;10373517;28;902;-71
2023/08/28 15:15:11;;;;;;;;;;;20.70;70.90;;;20.28;60.85;99299.19;10372892;28;819;-71
2023/08/28 15:20:06;;;;;;;;;;;20.70;71.00;;;20.27;60.81;99297.47;10372569;28;1199;-69
2023/08/28 15:25:02;;;;;;;;;;;20.70;70.80;;;20.27;60.95;99302.75;10372961;28;1973;-72
2023/08/28 15:29:57;;;;;;;;;;;20.70;70.80;;;20.29;60.86;99300.88;10372541;28;1337;-70
2023/08/28 15:34:53;;;;;;;;;;;20.70;70.90;;;20.32;60.75;99310.41;10372569;28;866;-70
2023/08/28 15:39:48;;;;;;;;;;;20.80;71.10;;;20.34;61.01;99308.53;10371751;28;865;-71
2023/08/28 15:44:44;;;;;;;;;;;20.80;71.20;;;20.35;61.10;99313.72;10372152;28;1973;-72
2023/08/28 15:49:39;;;;;;;;;;;20.80;71.50;;;20.35;61.07;99313.72;10370905;28;866;-70
2023/08/28 15:54:34;;;;;;;;;;;20.80;71.40;;;20.34;61.10;99317.31;10370228;28;1019;-69
2023/08/28 15:59:30;;;;;;;;;;;20.80;71.40;;;20.33;61.11;99301.53;10370785;28;826;-69
2023/08/28 16:04:25;;;;;;;;;;;20.80;71.30;;;20.32;61.06;99308.63;10371437;28;2053;-70
2023/08/28 16:09:21;;;;;;;;;;;20.80;71.40;;;20.34;61.04;99304.09;10370610;28;773;-70
2023/08/28 16:14:17;;;;;;;;;;;20.80;71.40;;;20.33;60.99;99298.88;10371865;28;819;-70
2023/08/28 16:19:14;;;;;;;;;;;20.80;71.30;;;20.33;61.05;99298.88;10370895;28;847;-70
2023/08/28 16:24:12;;;;;;;;;;;20.80;71.30;;;20.31;61.15;99301.63;10370290;28;1973;-70
2023/08/28 16:29:07;;;;;;;;;;;20.80;71.40;;;20.29;61.20;99300.88;10370602;28;1112;-70
2023/08/28 16:34:03;;;;;;;;;;;20.70;71.30;;;20.30;61.12;99301.72;10369423;28;937;-70
2023/08/28 16:39:00;;;;;;;;;;;20.80;71.40;;;20.29;61.32;99310.63;10370003;28;897;-72
2023/08/28 16:43:55;;;;;;;;;;;20.70;71.30;;;20.28;61.13;99312.41;10369803;28;1906;-72
2023/08/28 16:48:51;;;;;;;;;;;20.80;71.40;;;20.28;61.21;99306.28;10369728;28;815;-72
2023/08/28 16:53:46;;;;;;;;;;;20.80;71.30;;;20.27;61.22;99305.41;10368901;28;871;-71
2023/08/28 16:58:41;;;;;;;;;;;20.80;71.30;;;20.27;61.22;99307.19;10369394;28;901;-71
2023/08/28 17:03:37;;;;;;;;;;;20.80;71.40;;;20.27;61.13;99301.91;10367080;28;1910;-71
2023/08/28 17:08:32;;;;;;;;;;;20.70;71.30;;;20.26;61.20;99310.81;10368888;28;853;-71
2023/08/28 17:13:28;;;;;;;;;;;20.70;71.30;;;20.27;61.22;99305.41;10367401;28;941;-71
2023/08/28 17:18:23;;;;;;;;;;;20.70;71.30;;;20.28;61.19;99299.19;10367997;28;934;-71
2023/08/28 17:23:18;;;;;;;;;;;20.70;71.30;;;20.28;61.20;99304.47;10367785;28;1909;-71
2023/08/28 17:28:15;;;;;;;;;;;20.80;71.40;;;20.29;61.20;99295.59;10367884;28;1117;-71
2023/08/28 17:33:10;;;;;;;;;;;20.80;71.40;;;20.29;61.22;99286.78;10367409;28;857;-71
2023/08/28 17:38:06;;;;;;;;;;;20.80;71.30;;;20.28;61.14;99290.41;10367276;28;797;-72
2023/08/28 17:43:01;;;;;;;;;;;20.80;71.40;;;20.27;61.14;99294.81;10367877;28;1906;-71
2023/08/28 17:47:56;;;;;;;;;;;20.80;71.40;;;20.26;61.21;99287.84;10366973;28;980;-71
2023/08/28 17:52:52;;;;;;;;;;;20.70;71.30;;;20.26;61.36;99281.69;10366368;28;987;-72
2023/08/28 17:57:48;;;;;;;;;;;20.70;71.30;;;20.25;61.26;99280.84;10366672;28;797;-72
2023/08/28 18:02:43;;;;;;;;;;;20.70;71.40;;;20.24;61.28;99287.06;10365932;28;1973;-72
2023/08/28 18:07:39;;;;;;;;;;;20.70;71.30;;;20.24;61.49;99296.81;10366317;28;902;-72
2023/08/28 18:12:36;;;;;;;;;;;20.70;71.40;;;20.22;61.32;99296.03;10365672;28;1123;-71
2023/08/28 18:17:31;;;;;;;;;;;20.70;71.40;;;20.23;61.41;99301.25;10366922;28;987;-71
2023/08/28 18:22:27;;;;;;;;;;;20.70;71.40;;;20.24;61.25;99307.41;10366645;28;1914;-71
2023/08/28 18:27:22;;;;;;;;;;;20.70;71.30;;;20.24;61.28;99316.19;10366571;28;823;-71
2023/08/28 18:32:17;;;;;;;;;;;20.70;71.40;;;20.25;61.28;99319.66;10365814;28;1294;-72
2023/08/28 18:37:13;;;;;;;;;;;20.80;71.40;;;20.25;61.29;99336.44;10366451;28;823;-71
2023/08/28 18:42:08;;;;;;;;;;;20.70;71.30;;;20.24;61.40;99350.59;10365707;28;1913;-71
2023/08/28 18:47:04;;;;;;;;;;;20.70;71.40;;;20.24;61.33;99350.59;10365982;28;967;-71
2023/08/28 18:51:59;;;;;;;;;;;20.70;71.30;;;20.23;61.45;99348.88;10366189;28;858;-71
2023/08/28 18:56:54;;;;;;;;;;;20.70;71.40;;;20.23;61.45;99354.19;10364903;28;898;-71
2023/08/28 19:01:50;;;;;;;;;;;20.80;71.50;;;20.23;61.37;99362.13;10365310;28;1972;-71
2023/08/28 19:06:45;;;;;;;;;;;20.70;71.40;;;20.22;61.39;99363.03;10364689;28;917;-71
2023/08/28 19:11:41;;;;;;;;;;;20.80;71.50;;;20.23;61.41;99370.06;10365174;28;1196;-71
2023/08/28 19:16:38;;;;;;;;;;;20.80;71.40;;;20.23;61.32;99369.22;10366497;28;886;-71
2023/08/28 19:21:33;;;;;;;;;;;20.70;71.40;;;20.24;61.42;99373.56;10365639;28;1914;-71
2023/08/28 19:26:29;;;;;;;;;;;20.80;71.50;;;20.23;61.44;99375.34;10367483;28;862;-71
2023/08/28 19:31:25;;;;;;;;;;;20.80;71.50;;;20.24;61.35;99379.69;10372508;28;1119;-72
2023/08/28 19:36:21;;;;;;;;;;;20.70;71.40;;;20.25;61.43;99372.59;10371873;28;933;-71
2023/08/28 19:41:16;;;;;;;;;;;20.80;71.50;;;20.23;61.47;99364.78;10373034;28;961;-71
2023/08/28 19:46:13;;;;;;;;;;;20.80;71.40;;;20.23;61.54;99363.91;10372220;28;1902;-72
2023/08/28 19:51:09;;;;;;;;;;;20.70;71.40;;;20.22;61.45;99364.84;10371455;28;867;-71
2023/08/28 19:56:04;;;;;;;;;;;20.70;71.40;;;20.22;61.44;99376.28;10371294;28;886;-71
2023/08/28 20:00:59;;;;;;;;;;;20.70;71.40;;;20.21;61.50;99366.66;10371068;28;806;-69
2023/08/28 20:05:55;;;;;;;;;;;20.70;71.40;;;20.20;61.38;99375.53;10370892;28;1970;-68
2023/08/28 20:10:51;;;;;;;;;;;20.70;71.40;;;20.25;61.33;99378.78;10371407;28;827;-67
2023/08/28 20:15:46;;;;;;;;;;;20.70;71.40;;;20.23;61.48;99379.81;10370396;28;965;-71
2023/08/28 20:20:42;;;;;;;;;;;20.80;71.40;;;20.23;61.36;99372.72;10370292;28;942;-71
2023/08/28 20:25:38;;;;;;;;;;;20.80;71.40;;;20.23;61.34;99372.72;10369935;28;1973;-71
2023/08/28 20:30:33;;;;;;;;;;;20.80;71.40;;;20.24;61.50;99361.16;10370595;28;1161;-71
2023/08/28 20:35:29;;;;;;;;;;;20.80;71.50;;;20.25;61.46;99359.38;10369718;28;782;-71
2023/08/28 20:40:24;;;;;;;;;;;20.80;71.40;;;20.24;61.32;99361.16;10368285;28;878;-71
2023/08/28 20:45:19;;;;;;;;;;;20.70;71.50;;;20.23;61.40;99359.47;10369119;28;1973;-71
2023/08/28 20:50:15;;;;;;;;;;;20.70;71.40;;;20.23;61.47;99359.47;10369735;28;990;-71
2023/08/28 20:55:10;;;;;;;;;;;20.80;71.50;;;20.23;61.34;99369.22;10370332;28;861;-71
2023/08/28 21:00:06;;;;;;;;;;;20.70;71.40;;;20.23;61.55;99370.06;10368740;28;835;-71
2023/08/28 21:05:02;;;;;;;;;;;20.70;71.40;;;20.22;61.40;99372.78;10369072;28;1967;-71
2023/08/28 21:09:57;;;;;;;;;;;20.80;71.50;;;20.21;61.55;99374.59;10368426;28;953;-71
2023/08/28 21:14:53;;;;;;;;;;;20.70;71.40;;;20.22;61.62;99388.66;10368365;28;889;-71
2023/08/28 21:19:48;;;;;;;;;;;20.70;71.50;;;20.21;61.53;99385.19;10367356;28;857;-71
2023/08/28 21:24:43;;;;;;;;;;;20.70;71.50;;;20.21;61.61;99381.69;10368352;28;1910;-71
2023/08/28 21:29:39;;;;;;;;;;;20.70;71.50;;;20.21;61.66;99376.38;10367350;28;1337;-71
2023/08/28 21:34:34;;;;;;;;;;;20.70;71.50;;;20.20;61.43;99372.91;10368740;28;922;-71
2023/08/28 21:39:29;;;;;;;;;;;20.70;71.50;;;20.20;61.63;99370.25;10368019;28;888;-71
2023/08/28 21:44:26;;;;;;;;;;;20.70;71.60;;;20.20;61.53;99367.59;10367011;28;1976;-71
2023/08/28 21:49:21;;;;;;;;;;;20.70;71.50;;;20.21;61.56;99361.34;10366526;28;889;-71
2023/08/28 21:54:16;;;;;;;;;;;20.70;71.50;;;20.21;61.61;99356.06;10366852;28;779;-71
2023/08/28 21:59:12;;;;;;;;;;;20.70;71.60;;;20.21;61.58;99345.47;10366683;28;791;-71
2023/08/28 22:04:07;;;;;;;;;;;20.70;71.50;;;20.21;61.54;99350.78;10367144;28;1905;-71
2023/08/28 22:09:03;;;;;;;;;;;20.70;71.50;;;20.20;61.54;99341.13;10366396;28;787;-71
2023/08/28 22:13:58;;;;;;;;;;;20.70;71.60;;;20.19;61.51;99352.66;10366358;28;864;-71
2023/08/28 22:18:53;;;;;;;;;;;20.70;71.50;;;20.19;61.50;99368.53;10366267;28;769;-71
2023/08/28 22:23:49;;;;;;;;;;;20.70;71.60;;;20.20;61.60;99364.97;10366098;28;1963;-71
2023/08/28 22:28:44;;;;;;;;;;;20.70;71.60;;;20.17;61.71;99351.88;10365640;28;1313;-71
2023/08/28 22:33:40;;;;;;;;;;;20.70;71.50;;;20.19;61.55;99354.44;10365905;28;878;-71
2023/08/28 22:38:35;;;;;;;;;;;20.70;71.50;;;20.18;61.72;99350.13;10365901;28;842;-71
2023/08/28 22:43:30;;;;;;;;;;;20.70;71.50;;;20.18;61.69;99348.31;10365521;28;1971;-71
2023/08/28 22:48:26;;;;;;;;;;;20.70;71.50;;;20.19;61.58;99355.28;10367067;28;862;-71